createdAt,value
2022-09-02T00:02:17.403Z,17.90
2022-09-02T00:06:19.781Z,17.90
2022-09-02T00:10:21.437Z,17.90
2022-09-02T00:14:29.996Z,17.90
2022-09-02T00:18:32.323Z,17.90
2022-09-02T00:22:34.013Z,17.90
2022-09-02T00:26:35.738Z,17.90
2022-09-02T00:30:38.105Z,17.80
2022-09-02T00:34:39.821Z,17.80
2022-09-02T00:38:41.601Z,17.70
2022-09-02T00:42:43.428Z,17.70
2022-09-02T00:46:45.647Z,17.70
2022-09-02T00:50:47.495Z,17.70
2022-09-02T00:54:53.723Z,17.70
2022-09-02T00:58:56.517Z,17.90
2022-09-02T01:03:02.827Z,17.70
2022-09-02T01:07:05.950Z,17.80
2022-09-02T01:11:07.946Z,17.70
2022-09-02T01:15:11.105Z,17.80
2022-09-02T01:19:42.460Z,17.80
2022-09-02T01:23:45.767Z,17.90
2022-09-02T01:27:48.614Z,17.90
2022-09-02T01:31:50.754Z,17.90
2022-09-02T01:35:53.177Z,17.90
2022-09-02T01:39:57.112Z,17.90
2022-09-02T01:43:58.858Z,17.90
2022-09-02T01:48:00.545Z,17.90
2022-09-02T01:52:02.548Z,17.90
2022-09-02T01:56:04.305Z,17.90
2022-09-02T02:00:26.338Z,17.90
2022-09-02T02:04:28.578Z,17.90
2022-09-02T02:08:30.313Z,17.80
2022-09-02T02:12:32.151Z,17.80
2022-09-02T02:16:33.957Z,17.80
2022-09-02T02:20:36.458Z,17.80
2022-09-02T02:24:41.953Z,17.80
2022-09-02T02:28:44.651Z,17.70
2022-09-02T02:32:47.231Z,17.70
2022-09-02T02:36:48.997Z,17.60
2022-09-02T02:40:57.366Z,17.60
2022-09-02T02:44:59.158Z,17.50
2022-09-02T02:49:01.549Z,17.40
2022-09-02T02:53:03.475Z,17.30
2022-09-02T02:57:06.011Z,17.30
2022-09-02T03:01:08.023Z,17.20
2022-09-02T03:05:11.619Z,17.20
2022-09-02T03:09:13.564Z,17.20
2022-09-02T03:13:15.490Z,17.10
2022-09-02T03:17:17.305Z,17.10
2022-09-02T03:21:19.069Z,17.00
2022-09-02T03:25:21.519Z,17.00
2022-09-02T03:29:24.066Z,17.00
2022-09-02T03:33:25.795Z,16.90
2022-09-02T03:37:27.507Z,16.80
2022-09-02T03:41:30.075Z,16.70
2022-09-02T03:45:32.211Z,16.70
2022-09-02T03:49:35.074Z,16.60
2022-09-02T03:53:38.008Z,16.60
2022-09-02T03:57:39.735Z,16.50
2022-09-02T04:01:41.530Z,16.40
2022-09-02T04:05:55.163Z,16.30
2022-09-02T04:09:56.815Z,16.10
2022-09-02T04:13:59.087Z,15.90
2022-09-02T04:18:00.794Z,15.70
2022-09-02T04:22:02.511Z,15.60
2022-09-02T04:26:07.395Z,15.50
2022-09-02T04:30:09.769Z,15.30
2022-09-02T04:34:11.534Z,15.30
2022-09-02T04:38:13.420Z,15.30
2022-09-02T04:42:15.105Z,15.30
2022-09-02T04:46:17.408Z,15.30
2022-09-02T04:50:19.328Z,15.20
2022-09-02T04:54:20.979Z,15.10
2022-09-02T04:58:22.648Z,15.00
2022-09-02T05:02:24.512Z,14.90
2022-09-02T05:06:27.956Z,14.80
2022-09-02T05:10:30.682Z,14.80
2022-09-02T05:14:32.847Z,14.80
2022-09-02T05:18:34.703Z,14.70
2022-09-02T05:22:37.364Z,14.70
2022-09-02T05:26:44.541Z,14.70
2022-09-02T05:30:46.316Z,14.70
2022-09-02T05:34:48.320Z,14.60
2022-09-02T05:38:51.818Z,14.60
2022-09-02T05:42:53.558Z,14.60
2022-09-02T05:46:55.643Z,14.70
2022-09-02T05:50:58.538Z,14.70
2022-09-02T05:55:00.772Z,14.90
2022-09-02T05:59:02.932Z,15.10
2022-09-02T06:03:04.723Z,15.40
2022-09-02T06:07:06.831Z,15.80
2022-09-02T06:11:10.687Z,16.10
2022-09-02T06:15:12.872Z,16.60
2022-09-02T06:19:19.127Z,16.90
2022-09-02T06:23:22.166Z,17.30
2022-09-02T06:27:23.932Z,17.70
2022-09-02T06:31:25.813Z,18.00
2022-09-02T06:35:27.523Z,18.30
2022-09-02T06:39:29.787Z,18.50
2022-09-02T06:43:42.441Z,18.70
2022-09-02T06:47:45.914Z,18.90
2022-09-02T06:51:49.839Z,19.10
2022-09-02T06:55:51.815Z,19.20
2022-09-02T06:59:53.539Z,19.30
2022-09-02T07:04:22.896Z,19.30
2022-09-02T07:08:24.688Z,19.40
2022-09-02T07:12:27.293Z,19.50
2022-09-02T07:16:36.703Z,19.50
2022-09-02T07:20:38.786Z,19.50
2022-09-02T07:24:40.783Z,19.40
2022-09-02T07:28:43.115Z,19.40
2022-09-02T07:32:44.971Z,19.30
2022-09-02T07:36:48.454Z,19.30
2022-09-02T07:40:50.702Z,19.40
2022-09-02T07:44:58.688Z,19.50
2022-09-02T07:49:01.716Z,19.70
2022-09-02T07:53:06.255Z,19.80
2022-09-02T07:57:08.677Z,20.10
2022-09-02T08:01:11.430Z,20.20
2022-09-02T08:05:14.129Z,20.30
2022-09-02T08:09:15.907Z,20.60
2022-09-02T08:13:18.013Z,20.60
2022-09-02T08:17:20.327Z,20.70
2022-09-02T08:21:21.998Z,20.80
2022-09-02T08:25:23.832Z,20.60
2022-09-02T08:29:25.519Z,20.50
2022-09-02T08:33:27.207Z,20.50
2022-09-02T08:37:31.354Z,20.90
2022-09-02T08:41:45.357Z,21.20
2022-09-02T08:45:48.082Z,21.50
2022-09-02T08:49:54.821Z,21.90
2022-09-02T08:54:07.739Z,22.30
2022-09-02T08:58:10.214Z,22.60
2022-09-02T09:02:21.677Z,23.00
2022-09-02T09:06:38.239Z,23.10
2022-09-02T09:11:14.180Z,23.20
2022-09-02T09:15:25.972Z,23.50
2022-09-02T09:19:37.615Z,23.90
2022-09-02T09:23:40.231Z,24.40
2022-09-02T09:27:42.736Z,24.40
2022-09-02T09:31:47.521Z,24.30
2022-09-02T09:35:51.764Z,24.90
2022-09-02T09:39:53.676Z,25.70
2022-09-02T09:43:55.355Z,26.30
2022-09-02T09:48:19.185Z,27.10
2022-09-02T09:52:25.899Z,28.20
2022-09-02T09:56:30.189Z,28.70
2022-09-02T10:00:33.305Z,27.50
2022-09-02T10:04:43.787Z,28.50
2022-09-02T10:08:55.432Z,29.20
2022-09-02T10:13:01.151Z,28.90
2022-09-02T10:17:11.727Z,28.70
2022-09-02T10:22:04.121Z,29.40
2022-09-02T10:26:36.734Z,29.50
2022-09-02T10:31:08.485Z,30.00
2022-09-02T10:35:32.904Z,29.20
2022-09-02T10:40:15.389Z,28.60
2022-09-02T10:44:44.810Z,28.30
2022-09-02T10:49:01.544Z,28.00
2022-09-02T10:53:32.386Z,26.60
2022-09-02T10:57:43.839Z,26.20
2022-09-02T11:01:57.343Z,25.80
2022-09-02T11:06:11.063Z,25.70
2022-09-02T11:10:21.052Z,25.70
2022-09-02T11:14:24.820Z,26.00
2022-09-02T11:18:35.738Z,26.60
2022-09-02T11:23:00.781Z,27.00
2022-09-02T11:27:46.393Z,27.40
2022-09-02T11:32:07.657Z,27.40
2022-09-02T11:36:09.580Z,26.70
2022-09-02T11:41:36.628Z,26.40
2022-09-02T11:46:16.263Z,27.20
2022-09-02T11:50:41.268Z,27.30
2022-09-02T11:54:47.577Z,27.40
2022-09-02T11:58:52.959Z,27.40
2022-09-02T12:03:28.359Z,27.90
2022-09-02T12:07:29.904Z,28.20
2022-09-02T12:11:41.617Z,27.90
2022-09-02T12:15:45.145Z,28.20
2022-09-02T12:19:48.574Z,28.70
2022-09-02T12:23:56.366Z,28.60
2022-09-02T12:28:25.070Z,28.30
2022-09-02T12:33:04.787Z,28.20
2022-09-02T12:37:06.747Z,28.20
2022-09-02T12:41:26.944Z,28.00
2022-09-02T12:45:31.638Z,28.00
2022-09-02T12:50:02.897Z,28.50
2022-09-02T12:54:06.361Z,28.30
2022-09-02T12:58:16.777Z,28.30
2022-09-02T13:02:42.237Z,28.30
2022-09-02T13:06:53.755Z,28.50
2022-09-02T13:11:16.816Z,28.50
2022-09-02T13:15:36.123Z,28.50
2022-09-02T13:20:05.915Z,28.50
2022-09-02T13:24:29.423Z,28.30
2022-09-02T13:28:59.729Z,28.00
2022-09-02T13:33:14.202Z,27.90
2022-09-02T13:37:38.534Z,27.70
2022-09-02T13:41:40.305Z,27.60
2022-09-02T13:45:42.810Z,27.70
2022-09-02T13:49:47.524Z,28.00
2022-09-02T13:54:21.645Z,28.20
2022-09-02T13:58:32.567Z,28.30
2022-09-02T14:02:37.061Z,28.50
2022-09-02T14:06:42.053Z,28.50
2022-09-02T14:10:51.750Z,28.60
2022-09-02T14:14:54.084Z,28.30
2022-09-02T14:19:17.472Z,28.30
2022-09-02T14:23:19.263Z,27.90
2022-09-02T14:27:22.851Z,27.70
2022-09-02T14:31:47.359Z,27.00
2022-09-02T14:36:02.946Z,27.30
2022-09-02T14:40:12.717Z,27.70
2022-09-02T14:44:34.241Z,27.40
2022-09-02T14:48:38.795Z,27.30
2022-09-02T14:52:47.046Z,27.30
2022-09-02T14:56:53.366Z,27.40
2022-09-02T15:00:57.950Z,27.10
2022-09-02T15:05:06.128Z,27.00
2022-09-02T15:09:08.311Z,26.70
2022-09-02T15:13:24.631Z,26.40
2022-09-02T15:17:28.236Z,26.20
2022-09-02T15:21:29.928Z,26.20
2022-09-02T15:25:31.837Z,26.10
2022-09-02T15:29:33.528Z,25.80
2022-09-02T15:33:35.394Z,26.00
2022-09-02T15:37:38.060Z,26.00
2022-09-02T15:41:43.353Z,25.70
2022-09-02T15:45:49.452Z,25.60
2022-09-02T15:49:52.658Z,25.50
2022-09-02T15:53:56.544Z,25.50
2022-09-02T15:57:58.199Z,25.60
2022-09-02T16:02:00.476Z,25.60
2022-09-02T16:06:03.339Z,25.50
2022-09-02T16:10:05.293Z,25.50
2022-09-02T16:14:07.375Z,25.30
2022-09-02T16:18:09.070Z,25.10
2022-09-02T16:22:10.749Z,25.20
2022-09-02T16:26:21.193Z,25.20
2022-09-02T16:30:23.837Z,25.10
2022-09-02T16:34:25.724Z,24.90
2022-09-02T16:38:27.424Z,24.60
2022-09-02T16:42:29.350Z,24.40
2022-09-02T16:46:32.423Z,24.30
2022-09-02T16:50:34.074Z,24.10
2022-09-02T16:54:40.081Z,24.10
2022-09-02T16:58:42.597Z,24.00
2022-09-02T17:02:44.302Z,23.80
2022-09-02T17:06:45.973Z,23.70
2022-09-02T17:10:48.098Z,23.50
2022-09-02T17:14:49.916Z,23.40
2022-09-02T17:18:52.176Z,23.30
2022-09-02T17:22:55.611Z,23.20
2022-09-02T17:26:57.459Z,23.20
2022-09-02T17:30:59.208Z,23.10
2022-09-02T17:35:02.030Z,23.10
2022-09-02T17:39:12.687Z,23.00
2022-09-02T17:43:15.175Z,22.90
2022-09-02T17:47:20.231Z,22.80
2022-09-02T17:51:22.014Z,22.80
2022-09-02T17:55:23.844Z,22.60
2022-09-02T17:59:44.424Z,22.50
2022-09-02T18:04:01.363Z,22.50
2022-09-02T18:08:29.251Z,22.40
2022-09-02T18:12:30.926Z,22.20
2022-09-02T18:17:13.406Z,22.10
2022-09-02T18:21:35.580Z,22.00
2022-09-02T18:26:21.920Z,21.90
2022-09-02T18:30:45.287Z,21.70
2022-09-02T18:35:21.553Z,21.50
2022-09-02T18:39:41.419Z,21.40
2022-09-02T18:44:28.454Z,21.30
2022-09-02T18:48:36.146Z,21.10
2022-09-02T18:52:38.747Z,21.00
2022-09-02T18:56:49.030Z,20.90
2022-09-02T19:00:55.142Z,20.80
2022-09-02T19:05:01.615Z,20.60
2022-09-02T19:09:27.039Z,20.50
2022-09-02T19:13:30.023Z,20.40
2022-09-02T19:17:31.755Z,20.30
2022-09-02T19:22:11.800Z,20.20
2022-09-02T19:26:13.699Z,20.00
2022-09-02T19:30:22.400Z,19.80
2022-09-02T19:34:30.813Z,19.80
2022-09-02T19:38:32.555Z,19.70
2022-09-02T19:42:34.190Z,19.60
2022-09-02T19:47:20.715Z,19.50
2022-09-02T19:50:57.718Z,19.50
2022-09-02T19:54:59.438Z,19.30
2022-09-02T19:59:10.842Z,19.20
2022-09-02T20:03:13.142Z,19.00
2022-09-02T20:07:15.265Z,19.00
2022-09-02T20:11:17.571Z,19.00
2022-09-02T20:15:19.250Z,19.00
2022-09-02T20:19:21.382Z,18.90
2022-09-02T20:23:25.762Z,18.80
2022-09-02T20:27:50.107Z,18.80
2022-09-02T20:32:19.902Z,18.70
2022-09-02T20:36:37.124Z,18.70
2022-09-02T20:40:52.385Z,18.70
2022-09-02T20:45:18.051Z,18.50
2022-09-02T20:50:00.766Z,18.50
2022-09-02T20:54:11.400Z,18.40
2022-09-02T20:58:28.342Z,18.40
2022-09-02T21:02:37.815Z,18.40
2022-09-02T21:06:45.490Z,18.40
2022-09-02T21:10:51.995Z,18.20
2022-09-02T21:15:03.631Z,18.20
2022-09-02T21:19:05.298Z,18.20
2022-09-02T21:23:40.234Z,18.20
2022-09-02T21:27:45.391Z,18.20
2022-09-02T21:32:05.294Z,18.20
2022-09-02T21:36:07.417Z,18.30
2022-09-02T21:40:16.447Z,18.40
2022-09-02T21:44:36.733Z,18.40
2022-09-02T21:48:53.490Z,18.40
2022-09-02T21:53:07.471Z,18.40
2022-09-02T21:57:21.874Z,18.30
2022-09-02T22:01:51.022Z,18.40
2022-09-02T22:06:08.525Z,18.40
2022-09-02T22:10:19.389Z,18.40
2022-09-02T22:14:46.352Z,18.30
2022-09-02T22:19:00.733Z,18.40
2022-09-02T22:23:09.109Z,18.30
2022-09-02T22:27:29.681Z,18.30
2022-09-02T22:31:35.817Z,18.30
2022-09-02T22:35:56.972Z,18.20
2022-09-02T22:39:58.756Z,18.20
2022-09-02T22:44:19.535Z,18.20
2022-09-02T22:48:44.530Z,18.20
2022-09-02T22:52:46.437Z,18.20
2022-09-02T22:57:02.547Z,18.10
2022-09-02T23:01:20.557Z,18.10
2022-09-02T23:05:49.083Z,18.10
2022-09-02T23:09:55.985Z,18.10
2022-09-02T23:14:22.765Z,18.10
2022-09-02T23:18:36.185Z,18.10
2022-09-02T23:23:06.959Z,18.00
2022-09-02T23:27:21.037Z,18.00
2022-09-02T23:31:33.127Z,18.00
2022-09-02T23:35:53.600Z,17.90
2022-09-02T23:40:26.263Z,17.90
2022-09-02T23:44:29.467Z,17.80
2022-09-02T23:48:43.169Z,17.80
2022-09-02T23:52:52.818Z,17.80
2022-09-02T23:57:20.331Z,17.80
